Time;durP1;ratioP1;P1;durP2;ratioP2;P2;SDS_P1;SDS_P2;PMS_P1;PMS_P2;Temp;Humidity;BMP_temperature;BMP_pressure;BME280_temperature;BME280_humidity;BME280_pressure;Samples;Min_cycle;Max_cycle;Signal;HPM_P1;HPM_P2
2023/07/10 00:00:17;;;;;;;21.85;13.07;;;;;;;19.08;95.46;101874.66;5036566;28;20033;-72
2023/07/10 00:02:42;;;;;;;19.80;12.38;;;;;;;19.00;96.26;101871.59;5036766;28;20036;-74
2023/07/10 00:05:13;;;;;;;22.88;14.02;;;;;;;19.00;97.09;101865.97;5031189;28;20037;-73
2023/07/10 00:07:38;;;;;;;27.65;12.85;;;;;;;18.97;96.84;101872.25;5039885;28;20465;-74
2023/07/10 00:10:04;;;;;;;20.27;13.43;;;;;;;18.98;96.54;101871.09;5053388;28;20035;-73
2023/07/10 00:12:29;;;;;;;20.60;13.38;;;;;;;18.91;97.19;101878.34;5043093;28;20053;-74
2023/07/10 00:14:55;;;;;;;22.65;13.40;;;;;;;18.89;97.56;101881.50;5042617;28;20104;-73
2023/07/10 00:17:20;;;;;;;22.48;14.13;;;;;;;18.90;97.40;101876.72;5041733;28;20392;-73
2023/07/10 00:19:45;;;;;;;22.65;12.73;;;;;;;18.92;97.90;101874.41;5041587;28;20056;-74
2023/07/10 00:22:11;;;;;;;21.63;13.50;;;;;;;18.91;97.57;101879.19;5034723;28;20034;-74
2023/07/10 00:24:36;;;;;;;22.42;12.80;;;;;;;18.90;97.83;101882.31;5044049;28;20421;-73
2023/07/10 00:27:02;;;;;;;22.23;13.18;;;;;;;18.84;97.52;101870.50;5034826;28;20042;-74
2023/07/10 00:29:31;;;;;;;21.17;13.05;;;;;;;18.84;98.26;101864.91;5034695;28;20147;-73
2023/07/10 00:31:58;;;;;;;22.85;13.32;;;;;;;18.78;98.64;101877.44;5055058;28;20032;-73
2023/07/10 00:34:25;;;;;;;21.92;13.35;;;;;;;18.79;98.36;101881.91;5044293;28;20481;-74
2023/07/10 00:36:52;;;;;;;21.95;13.80;;;;;;;18.71;98.35;101863.94;5034508;28;20078;-74
2023/07/10 00:39:26;;;;;;;22.48;13.38;;;;;;;18.67;99.63;101875.00;5051848;28;20182;-73
2023/07/10 00:41:59;;;;;;;21.10;13.30;;;;;;;18.66;100.00;101878.97;5035133;28;20037;-73
2023/07/10 00:44:35;;;;;;;22.85;13.27;;;;;;;18.66;100.00;101875.38;5045653;28;20029;-74
2023/07/10 00:47:08;;;;;;;23.55;14.05;;;;;;;18.59;100.00;101878.69;5035521;28;20048;-73
2023/07/10 00:50:12;;;;;;;23.27;14.73;;;;;;;18.59;100.00;101875.06;5036213;28;20029;-73
2023/07/10 00:52:41;;;;;;;22.27;14.52;;;;;;;18.47;100.00;101868.19;5037812;28;20046;-73
2023/07/10 00:55:28;;;;;;;22.60;13.57;;;;;;;18.49;100.00;101884.66;5049492;28;20029;-72
2023/07/10 00:58:15;;;;;;;21.77;13.98;;;;;;;18.36;100.00;101887.34;5042231;28;20025;-73
2023/07/10 01:01:00;;;;;;;20.90;13.90;;;;;;;18.27;100.00;101885.72;5054031;28;20037;-73
2023/07/10 01:03:25;;;;;;;21.65;13.35;;;;;;;18.23;100.00;101891.16;5047055;28;20400;-73
2023/07/10 01:05:51;;;;;;;21.33;13.63;;;;;;;18.21;100.00;101901.88;5053717;28;20032;-73
2023/07/10 01:08:16;;;;;;;23.50;13.82;;;;;;;18.19;100.00;101899.41;5035075;28;20031;-74
2023/07/10 01:10:41;;;;;;;20.00;13.57;;;;;;;18.18;100.00;101896.97;5053730;28;20120;-74
2023/07/10 01:13:07;;;;;;;20.10;13.02;;;;;;;18.16;100.00;101883.28;5043165;28;20037;-73
2023/07/10 01:15:32;;;;;;;21.75;12.82;;;;;;;18.20;100.00;101873.06;5043199;28;20038;-73
2023/07/10 01:17:58;;;;;;;20.58;13.10;;;;;;;18.12;100.00;101876.72;5038362;28;20028;-74
2023/07/10 01:20:39;;;;;;;20.35;12.93;;;;;;;18.11;100.00;101893.81;5050461;28;20035;-74
2023/07/10 01:23:05;;;;;;;22.38;13.32;;;;;;;18.14;100.00;101890.38;5047800;28;20192;-73
2023/07/10 01:25:37;;;;;;;19.95;12.00;;;;;;;18.05;100.00;101895.97;5042052;28;20049;-72
2023/07/10 01:28:09;;;;;;;20.60;12.57;;;;;;;18.03;100.00;101899.13;5053928;28;20052;-74
2023/07/10 01:30:37;;;;;;;22.92;12.65;;;;;;;18.04;100.00;101897.16;5039017;28;20477;-74
2023/07/10 01:33:02;;;;;;;19.85;12.32;;;;;;;18.00;100.00;101894.16;5051561;28;20029;-74
2023/07/10 01:35:31;;;;;;;22.65;12.43;;;;;;;18.00;100.00;101896.16;5055375;28;20199;-74
2023/07/10 01:37:56;;;;;;;19.80;12.63;;;;;;;17.97;100.00;101889.25;5053397;28;20033;-73
2023/07/10 01:40:29;;;;;;;21.20;12.40;;;;;;;17.98;100.00;101881.66;5040587;28;20029;-73
2023/07/10 01:42:59;;;;;;;21.50;12.77;;;;;;;18.03;100.00;101871.13;5045587;28;20033;-71
2023/07/10 01:45:26;;;;;;;18.98;12.25;;;;;;;18.03;100.00;101873.09;5046397;28;20036;-72
2023/07/10 01:47:53;;;;;;;20.23;12.13;;;;;;;18.11;100.00;101875.06;5036137;28;20056;-72
2023/07/10 01:50:20;;;;;;;19.55;12.18;;;;;;;18.14;100.00;101876.38;5054121;28;20384;-73
2023/07/10 01:52:46;;;;;;;20.42;12.05;;;;;;;18.09;99.13;101874.56;5043524;28;20068;-72
2023/07/10 01:55:14;;;;;;;20.40;11.40;;;;;;;18.08;100.00;101881.31;5046629;28;20052;-72
2023/07/10 01:57:40;;;;;;;19.45;11.40;;;;;;;18.13;100.00;101894.31;5038273;28;20112;-72
2023/07/10 02:00:06;;;;;;;19.52;11.82;;;;;;;18.17;100.00;101893.31;5044122;28;20107;-72
2023/07/10 02:02:31;;;;;;;20.10;10.57;;;;;;;18.13;98.78;101895.16;5032377;28;20488;-73
2023/07/10 02:04:56;;;;;;;18.13;10.32;;;;;;;18.18;99.07;101896.97;5046309;28;20024;-72
2023/07/10 02:07:22;;;;;;;19.73;11.55;;;;;;;18.18;98.50;101880.16;5048702;28;20021;-71
2023/07/10 02:09:47;;;;;;;18.30;11.00;;;;;;;18.11;98.10;101874.22;5035578;28;20119;-72
2023/07/10 02:12:13;;;;;;;19.83;11.35;;;;;;;18.09;98.92;101874.56;5032883;28;20037;-72
2023/07/10 02:14:39;;;;;;;18.73;10.68;;;;;;;18.11;98.90;101879.81;5039129;28;20025;-73
2023/07/10 02:17:05;;;;;;;19.77;11.07;;;;;;;18.06;98.64;101876.06;5035871;28;20114;-72
2023/07/10 02:19:31;;;;;;;19.23;11.20;;;;;;;18.05;97.93;101894.00;5046332;28;20100;-72
2023/07/10 02:21:56;;;;;;;18.70;10.13;;;;;;;18.00;98.26;101884.97;5041337;28;20033;-73
2023/07/10 02:24:21;;;;;;;20.70;11.35;;;;;;;17.97;97.64;101883.66;5053797;28;20102;-72
2023/07/10 02:26:47;;;;;;;18.35;11.32;;;;;;;17.98;97.79;101884.47;5050781;28;20036;-72
2023/07/10 02:29:12;;;;;;;18.73;10.48;;;;;;;17.94;97.23;101889.88;5036195;28;20028;-72
2023/07/10 02:31:37;;;;;;;16.58;10.32;;;;;;;17.93;98.18;101891.03;5050479;28;20044;-72
2023/07/10 02:34:03;;;;;;;18.17;10.55;;;;;;;17.96;98.05;101892.31;5053092;28;20524;-73
2023/07/10 02:36:29;;;;;;;17.67;10.57;;;;;;;17.93;98.34;101894.66;5063928;28;20021;-72
2023/07/10 02:38:55;;;;;;;18.52;11.10;;;;;;;17.97;97.71;101897.66;5042968;28;20037;-72
2023/07/10 02:41:20;;;;;;;17.92;10.90;;;;;;;17.98;98.00;101898.47;5047411;28;20032;-72
2023/07/10 02:43:45;;;;;;;19.10;10.93;;;;;;;17.90;98.88;101892.50;5031993;28;20031;-72
2023/07/10 02:46:11;;;;;;;19.20;11.70;;;;;;;17.86;99.26;101891.50;5049606;28;20037;-72
2023/07/10 02:48:36;;;;;;;19.75;11.30;;;;;;;17.84;100.00;101899.44;5031973;28;20025;-72
2023/07/10 02:51:01;;;;;;;18.45;11.30;;;;;;;17.78;100.00;101912.78;5040838;28;20485;-72
2023/07/10 02:53:27;;;;;;;20.30;12.10;;;;;;;17.74;100.00;101910.97;5034806;28;20152;-72
2023/07/10 02:55:52;;;;;;;19.25;11.60;;;;;;;17.69;99.87;101906.38;5046993;28;20170;-72
2023/07/10 02:58:17;;;;;;;18.38;11.57;;;;;;;17.63;99.21;101907.66;5033901;28;20452;-72
2023/07/10 03:00:43;;;;;;;20.88;12.00;;;;;;;17.59;99.50;101923.47;5039886;28;20115;-73
2023/07/10 03:03:08;;;;;;;17.88;11.27;;;;;;;17.54;99.80;101912.44;5033708;28;20033;-73
2023/07/10 03:05:34;;;;;;;17.30;11.15;;;;;;;17.46;99.33;101925.28;5051247;28;20112;-72
2023/07/10 03:07:59;;;;;;;20.42;11.07;;;;;;;17.45;99.94;101920.84;5036185;28;20018;-72
2023/07/10 03:10:25;;;;;;;17.92;10.60;;;;;;;17.42;100.00;101921.47;5048851;28;20021;-72
2023/07/10 03:12:50;;;;;;;18.42;11.68;;;;;;;17.42;100.00;101919.50;5041433;28;20538;-73
2023/07/10 03:15:16;;;;;;;20.20;11.90;;;;;;;17.43;100.00;101917.53;5051420;28;20036;-72
2023/07/10 03:17:42;;;;;;;21.13;12.13;;;;;;;17.38;100.00;101923.28;5046395;28;20078;-71
2023/07/10 03:20:09;;;;;;;20.10;11.60;;;;;;;17.38;100.00;101928.88;5046866;28;20086;-72
2023/07/10 03:22:34;;;;;;;18.60;11.60;;;;;;;17.37;100.00;101936.44;5060698;28;20029;-73
2023/07/10 03:24:59;;;;;;;19.95;11.50;;;;;;;17.33;100.00;101934.63;5037985;28;20059;-71
2023/07/10 03:27:27;;;;;;;20.98;12.88;;;;;;;17.31;100.00;101935.75;5033939;28;20397;-72
2023/07/10 03:29:52;;;;;;;20.73;11.55;;;;;;;17.28;100.00;101942.03;5046146;28;20020;-73
2023/07/10 03:32:18;;;;;;;19.25;12.45;;;;;;;17.26;100.00;101940.69;5051441;28;20503;-74
2023/07/10 03:34:43;;;;;;;19.50;12.60;;;;;;;17.27;100.00;101942.34;5046717;28;20021;-73
2023/07/10 03:37:08;;;;;;;20.75;12.50;;;;;;;17.26;100.00;101943.47;5045041;28;20037;-73
2023/07/10 03:39:35;;;;;;;21.13;12.88;;;;;;;17.24;100.00;101946.63;5042500;28;20033;-74
2023/07/10 03:42:01;;;;;;;19.85;12.20;;;;;;;17.20;100.00;101948.41;5044810;28;20044;-73
2023/07/10 03:44:26;;;;;;;21.20;13.23;;;;;;;17.18;100.00;101945.13;5036337;28;20032;-73
2023/07/10 03:46:52;;;;;;;21.63;13.00;;;;;;;17.15;100.00;101954.97;5055269;28;20025;-72
2023/07/10 03:49:17;;;;;;;20.92;13.10;;;;;;;17.11;100.00;101953.97;5043926;28;20427;-72
2023/07/10 03:51:43;;;;;;;20.58;13.27;;;;;;;17.10;100.00;101943.09;5049528;28;20038;-72
2023/07/10 03:54:08;;;;;;;22.05;13.18;;;;;;;17.07;100.00;101946.56;5036327;28;20091;-72
2023/07/10 03:56:35;;;;;;;19.63;12.52;;;;;;;17.05;100.00;101946.06;5036013;28;20029;-72
2023/07/10 03:59:00;;;;;;;22.48;12.95;;;;;;;17.05;100.00;101940.47;5054193;28;20039;-72
2023/07/10 04:01:26;;;;;;;21.15;13.55;;;;;;;17.05;100.00;101935.69;5045749;28;20018;-72
2023/07/10 04:03:51;;;;;;;20.67;13.23;;;;;;;17.09;100.00;101952.66;5043003;28;20056;-72
2023/07/10 04:06:17;;;;;;;22.98;13.02;;;;;;;17.08;100.00;101954.63;5051838;28;20032;-72
2023/07/10 04:08:44;;;;;;;22.85;13.80;;;;;;;17.08;100.00;101968.59;5038185;28;20493;-72
2023/07/10 04:11:21;;;;;;;21.17;13.27;;;;;;;17.03;100.00;101957.56;5060513;28;20480;-72
2023/07/10 04:13:48;;;;;;;21.08;14.13;;;;;;;17.06;100.00;101967.28;5040873;28;20029;-72
2023/07/10 04:16:19;;;;;;;21.88;14.18;;;;;;;17.08;100.00;101971.41;5048950;28;20032;-73
2023/07/10 04:18:47;;;;;;;22.90;14.55;;;;;;;17.04;100.00;101973.22;5046774;28;20029;-73
2023/07/10 04:21:20;;;;;;;23.15;15.20;;;;;;;17.03;100.00;101976.31;5050779;28;20124;-73
2023/07/10 04:23:45;;;;;;;21.30;14.93;;;;;;;17.10;100.00;101985.03;5051096;28;20410;-72
2023/07/10 04:26:20;;;;;;;22.50;15.20;;;;;;;17.06;100.00;101970.06;5066057;28;20123;-72
2023/07/10 04:28:49;;;;;;;24.15;14.60;;;;;;;17.10;100.00;101971.91;5060466;28;20060;-73
2023/07/10 04:31:15;;;;;;;22.02;14.85;;;;;;;17.14;100.00;101961.69;5047886;28;20090;-73
2023/07/10 04:33:41;;;;;;;21.63;14.27;;;;;;;17.13;100.00;101976.00;5051148;28;20065;-72
2023/07/10 04:36:07;;;;;;;22.40;14.38;;;;;;;17.14;100.00;101978.47;5050516;28;20063;-73
2023/07/10 04:38:32;;;;;;;21.50;14.48;;;;;;;17.19;100.00;101971.94;5044957;28;20034;-73
2023/07/10 04:41:00;;;;;;;21.95;14.82;;;;;;;17.17;100.00;101968.63;5044935;28;20087;-74
2023/07/10 04:43:28;;;;;;;22.52;14.18;;;;;;;17.17;100.00;101971.44;5054550;28;20103;-73
2023/07/10 04:45:55;;;;;;;22.55;14.70;;;;;;;17.23;100.00;101972.13;5052132;28;20028;-73
2023/07/10 04:48:21;;;;;;;22.40;14.65;;;;;;;17.37;100.00;101977.59;5045711;28;20068;-74
2023/07/10 04:50:48;;;;;;;20.58;14.35;;;;;;;17.43;100.00;101977.06;5037686;28;20036;-73
2023/07/10 04:53:14;;;;;;;22.02;14.60;;;;;;;17.55;100.00;101984.03;5042706;28;20096;-73
2023/07/10 04:55:39;;;;;;;22.50;14.18;;;;;;;17.65;100.00;101975.31;5042551;28;20029;-73
2023/07/10 04:58:05;;;;;;;20.70;13.95;;;;;;;17.77;100.00;101986.69;5052381;28;20091;-74
2023/07/10 05:00:31;;;;;;;23.05;14.00;;;;;;;17.85;100.00;101990.66;5050719;28;20025;-74
2023/07/10 05:02:56;;;;;;;21.65;13.90;;;;;;;17.93;100.00;101987.03;5034740;28;20439;-73
2023/07/10 05:05:21;;;;;;;21.23;13.85;;;;;;;17.96;100.00;101990.31;5040539;28;20032;-74
2023/07/10 05:07:47;;;;;;;21.23;14.07;;;;;;;17.97;100.00;101994.78;5041837;28;20029;-74
2023/07/10 05:10:12;;;;;;;21.35;13.85;;;;;;;17.93;100.00;101995.44;5038627;28;20025;-74
2023/07/10 05:12:37;;;;;;;20.48;14.05;;;;;;;17.90;100.00;101993.28;5059162;28;20037;-72
2023/07/10 05:15:03;;;;;;;22.13;13.82;;;;;;;17.90;100.00;101995.28;5035401;28;20030;-72
2023/07/10 05:17:28;;;;;;;21.85;14.02;;;;;;;17.88;100.00;101994.78;5058612;28;20416;-72
2023/07/10 05:19:54;;;;;;;21.02;13.98;;;;;;;17.90;100.00;101995.28;5047024;28;20025;-73
2023/07/10 05:22:19;;;;;;;22.50;14.35;;;;;;;17.85;100.00;102001.03;5072619;28;20385;-73
2023/07/10 05:24:44;;;;;;;21.05;13.60;;;;;;;17.88;100.00;101997.56;5060384;28;20034;-72
2023/07/10 05:27:10;;;;;;;21.35;14.10;;;;;;;17.93;100.00;102006.63;5056167;28;20025;-73
2023/07/10 05:29:35;;;;;;;22.30;13.80;;;;;;;17.96;100.00;102004.31;5041089;28;20374;-73
2023/07/10 05:32:00;;;;;;;23.42;14.05;;;;;;;18.04;100.00;102015.56;5049527;28;20037;-73
2023/07/10 05:34:26;;;;;;;21.92;13.90;;;;;;;18.11;100.00;102012.28;5037657;28;20129;-73
2023/07/10 05:36:51;;;;;;;21.95;13.60;;;;;;;18.15;100.00;102010.44;5048556;28;20037;-72
2023/07/10 05:39:17;;;;;;;23.00;13.90;;;;;;;18.20;100.00;102003.84;5053141;28;20112;-72
2023/07/10 05:41:42;;;;;;;22.05;13.68;;;;;;;18.17;99.82;102015.72;5045029;28;20037;-73
2023/07/10 05:44:07;;;;;;;22.35;13.93;;;;;;;18.21;100.00;102011.09;5043666;28;20037;-72
2023/07/10 05:46:33;;;;;;;22.15;13.63;;;;;;;18.28;99.30;102002.19;5045725;28;20115;-73
2023/07/10 05:48:58;;;;;;;20.98;12.95;;;;;;;18.29;99.64;102003.84;5052833;28;20040;-73
2023/07/10 05:51:24;;;;;;;22.73;13.63;;;;;;;18.36;99.11;101999.41;5048954;28;20040;-72
2023/07/10 05:53:49;;;;;;;21.30;12.68;;;;;;;18.48;98.89;101995.06;5043797;28;20033;-72
2023/07/10 05:56:14;;;;;;;21.33;14.10;;;;;;;18.54;97.99;102000.19;5050060;28;20036;-71
2023/07/10 05:58:40;;;;;;;21.08;13.20;;;;;;;18.64;97.93;101998.19;5040504;28;20029;-72
2023/07/10 06:01:06;;;;;;;21.42;13.20;;;;;;;18.65;97.00;102008.25;5045939;28;20047;-71
2023/07/10 06:03:33;;;;;;;24.50;14.00;;;;;;;18.59;96.15;102010.38;5052166;28;20052;-71
2023/07/10 06:06:04;;;;;;;22.10;13.60;;;;;;;18.71;96.27;102006.91;5045882;28;20505;-72
2023/07/10 06:08:32;;;;;;;20.30;12.52;;;;;;;18.83;95.74;102006.22;5037178;28;20049;-72
2023/07/10 06:10:58;;;;;;;21.38;12.93;;;;;;;18.93;94.74;101997.47;5054354;28;20527;-72
2023/07/10 06:13:24;;;;;;;22.27;12.77;;;;;;;18.91;94.38;101999.75;5041935;28;20036;-71
2023/07/10 06:15:52;;;;;;;19.70;12.40;;;;;;;18.86;92.97;102006.38;5042979;28;20025;-72
2023/07/10 06:18:18;;;;;;;20.30;13.00;;;;;;;18.91;93.22;102005.38;5036039;28;20084;-72
2023/07/10 06:20:48;;;;;;;20.38;12.80;;;;;;;18.96;93.29;102001.59;5043808;28;20033;-71
2023/07/10 06:23:14;;;;;;;21.75;13.30;;;;;;;19.07;92.52;102002.03;5039180;28;20063;-72
2023/07/10 06:25:43;;;;;;;22.75;13.23;;;;;;;19.10;92.41;102009.78;5049372;28;20049;-71
2023/07/10 06:28:09;;;;;;;19.83;12.70;;;;;;;19.21;92.56;102007.41;5043199;28;20025;-72
2023/07/10 06:30:37;;;;;;;23.20;13.00;;;;;;;19.25;92.62;102006.41;5043563;28;20115;-72
2023/07/10 06:33:03;;;;;;;23.17;13.70;;;;;;;19.24;91.10;102010.34;5055130;28;20032;-71
2023/07/10 06:35:28;;;;;;;21.77;13.23;;;;;;;19.33;92.05;102024.34;5040980;28;20028;-72
2023/07/10 06:37:53;;;;;;;20.27;12.77;;;;;;;19.41;92.31;102026.28;5051292;28;20028;-71
2023/07/10 06:40:19;;;;;;;22.08;12.85;;;;;;;19.42;89.99;102024.28;5038815;28;20029;-71
2023/07/10 06:42:44;;;;;;;20.50;13.00;;;;;;;19.42;89.78;102027.09;5050249;28;20082;-72
2023/07/10 06:45:11;;;;;;;20.20;12.73;;;;;;;19.46;89.36;102022.47;5035393;28;20025;-72
2023/07/10 06:47:40;;;;;;;20.98;12.20;;;;;;;19.51;88.13;102033.50;5048733;28;20040;-71
2023/07/10 06:50:07;;;;;;;20.92;12.52;;;;;;;19.60;87.24;102031.44;5041306;28;20028;-71
2023/07/10 06:52:33;;;;;;;20.83;12.60;;;;;;;19.61;86.99;102035.09;5048089;28;20682;-71
2023/07/10 06:54:58;;;;;;;19.95;12.40;;;;;;;19.66;87.82;102034.88;5043458;28;20477;-71
2023/07/10 06:57:23;;;;;;;21.17;12.05;;;;;;;19.67;86.85;102033.72;5061960;28;20087;-71
2023/07/10 06:59:49;;;;;;;20.67;12.35;;;;;;;19.70;86.60;102035.03;5051077;28;20365;-70
2023/07/10 07:02:14;;;;;;;20.92;12.05;;;;;;;19.76;86.12;102033.69;5045231;28;20060;-70
2023/07/10 07:04:41;;;;;;;21.58;12.63;;;;;;;19.77;85.69;102036.13;5041562;28;20057;-71
2023/07/10 07:07:07;;;;;;;20.65;11.85;;;;;;;19.88;85.71;102036.59;5037914;28;20490;-70
2023/07/10 07:09:32;;;;;;;19.17;12.05;;;;;;;19.96;84.26;102037.69;5048710;28;20120;-70
2023/07/10 07:11:58;;;;;;;19.80;12.35;;;;;;;20.07;83.55;102040.94;5049926;28;20017;-71
2023/07/10 07:14:24;;;;;;;20.92;12.90;;;;;;;20.15;82.91;102036.38;5031601;28;20035;-71
2023/07/10 07:16:49;;;;;;;19.55;11.93;;;;;;;20.19;82.91;102038.16;5041830;28;20100;-71
2023/07/10 07:19:15;;;;;;;19.58;11.48;;;;;;;20.21;82.77;102032.22;5035597;28;20040;-70
2023/07/10 07:21:40;;;;;;;20.63;12.02;;;;;;;20.24;82.19;102025.91;5038352;28;20075;-71
2023/07/10 07:24:05;;;;;;;20.25;11.45;;;;;;;20.25;80.87;102022.75;5048008;28;20033;-73
2023/07/10 07:26:32;;;;;;;20.85;12.35;;;;;;;20.32;81.53;102027.00;5042153;28;20178;-72
2023/07/10 07:28:58;;;;;;;19.83;11.90;;;;;;;20.40;82.19;102040.13;5040387;28;20049;-73
2023/07/10 07:31:23;;;;;;;21.73;12.10;;;;;;;20.40;80.85;102038.13;5037564;28;20028;-72
2023/07/10 07:33:49;;;;;;;20.50;11.52;;;;;;;20.35;78.95;102041.19;5038023;28;20061;-72
2023/07/10 07:36:15;;;;;;;21.52;11.50;;;;;;;20.45;82.88;102050.34;5043772;28;20033;-72
2023/07/10 07:38:40;;;;;;;18.35;10.80;;;;;;;20.50;79.62;102047.34;5069746;28;20090;-71
2023/07/10 07:41:07;;;;;;;20.25;10.50;;;;;;;20.56;77.17;102055.19;5069503;28;20035;-71
2023/07/10 07:43:32;;;;;;;20.90;10.57;;;;;;;20.65;77.56;102063.53;5070148;28;20130;-70
2023/07/10 07:45:57;;;;;;;20.10;11.05;;;;;;;20.67;76.17;102055.59;5070092;28;20474;-71
2023/07/10 07:48:24;;;;;;;19.50;10.50;;;;;;;20.78;75.63;102049.56;5069914;28;20016;-70
2023/07/10 07:51:04;;;;;;;19.98;10.70;;;;;;;20.80;75.03;102053.66;5057140;28;20107;-71
2023/07/10 07:53:32;;;;;;;18.75;10.35;;;;;;;20.78;75.19;102050.38;5044838;28;20143;-71
2023/07/10 07:55:58;;;;;;;19.42;10.80;;;;;;;20.87;74.94;102048.28;5049639;28;20086;-72
2023/07/10 07:58:24;;;;;;;20.38;10.82;;;;;;;20.94;75.03;102049.69;5049557;28;20033;-71
2023/07/10 08:00:50;;;;;;;17.65;10.13;;;;;;;21.00;74.54;102046.31;5048404;28;20025;-71
2023/07/10 08:03:15;;;;;;;18.95;10.27;;;;;;;21.10;73.82;102041.41;5049767;28;20112;-73
2023/07/10 08:05:41;;;;;;;20.83;10.50;;;;;;;21.16;73.56;102043.66;5049853;28;20031;-71
2023/07/10 08:08:10;;;;;;;18.67;9.80;;;;;;;21.17;70.96;102044.47;5049973;28;20041;-72
2023/07/10 08:10:39;;;;;;;21.88;10.40;;;;;;;21.21;71.52;102042.59;5050474;28;20094;-71
2023/07/10 08:13:05;;;;;;;19.17;10.57;;;;;;;21.23;72.08;102039.41;5047332;28;20034;-71
2023/07/10 08:15:31;;;;;;;18.48;10.40;;;;;;;21.32;72.61;102040.13;5036666;28;20030;-71
2023/07/10 08:17:56;;;;;;;18.80;10.70;;;;;;;21.43;72.08;102038.50;5049598;28;20503;-72
2023/07/10 08:20:22;;;;;;;19.33;10.32;;;;;;;21.56;72.08;102039.31;5049596;28;20032;-72
2023/07/10 08:22:47;;;;;;;19.35;9.75;;;;;;;21.57;70.16;102043.75;5040680;28;20033;-71
2023/07/10 08:25:13;;;;;;;19.05;9.85;;;;;;;21.66;70.56;102041.69;5038636;28;20049;-71
2023/07/10 08:27:38;;;;;;;19.83;9.85;;;;;;;21.76;68.83;102037.56;5038695;28;20033;-70
2023/07/10 08:30:04;;;;;;;19.08;9.93;;;;;;;21.87;68.72;102037.91;5043879;28;20401;-72
2023/07/10 08:32:30;;;;;;;18.88;9.63;;;;;;;21.92;68.23;102034.81;5042923;28;20065;-71
2023/07/10 08:34:55;;;;;;;17.67;9.88;;;;;;;21.92;67.28;102045.28;5040700;28;20021;-72
2023/07/10 08:37:20;;;;;;;17.42;9.10;;;;;;;21.95;67.75;102036.13;5040808;28;20068;-71
2023/07/10 08:39:47;;;;;;;19.35;9.40;;;;;;;22.00;65.91;102040.69;5032496;28;20111;-72
2023/07/10 08:42:22;;;;;;;18.42;9.00;;;;;;;22.17;65.51;102042.38;5041961;28;20037;-71
2023/07/10 08:44:49;;;;;;;18.95;9.23;;;;;;;22.23;65.91;102046.59;5041397;28;20550;-73
2023/07/10 08:47:19;;;;;;;19.02;9.50;;;;;;;22.24;65.14;102049.06;5054196;28;20036;-71
2023/07/10 08:49:56;;;;;;;17.38;9.43;;;;;;;22.31;64.26;102042.81;5038340;28;20048;-72
2023/07/10 08:52:34;;;;;;;19.08;9.20;;;;;;;22.29;63.14;102033.88;5040648;28;20032;-70
2023/07/10 08:54:59;;;;;;;17.60;9.38;;;;;;;22.35;62.96;102037.28;5053691;28;20493;-72
2023/07/10 08:57:42;;;;;;;16.70;8.90;;;;;;;22.41;64.41;102038.69;5053478;28;20071;-72
2023/07/10 09:00:12;;;;;;;17.58;9.45;;;;;;;22.52;63.83;102050.28;5052422;28;20033;-71
2023/07/10 09:03:01;;;;;;;16.40;9.10;;;;;;;22.59;63.16;102040.00;5053095;28;20500;-71
2023/07/10 09:05:29;;;;;;;18.23;9.50;;;;;;;22.58;61.06;102037.56;5052888;28;20037;-71
2023/07/10 09:08:09;;;;;;;18.05;9.20;;;;;;;22.68;61.36;102041.84;5052897;28;20041;-71
2023/07/10 09:10:41;;;;;;;19.05;9.40;;;;;;;22.70;61.83;102039.47;5053193;28;20033;-71
2023/07/10 09:13:14;;;;;;;15.52;9.20;;;;;;;22.80;60.43;102047.41;5066078;28;20454;-71
2023/07/10 09:15:47;;;;;;;17.83;9.25;;;;;;;23.02;60.43;102040.34;5072846;28;20122;-72
2023/07/10 09:18:36;;;;;;;19.80;9.20;;;;;;;23.20;58.70;102054.13;5072860;28;20129;-72
2023/07/10 09:21:13;;;;;;;15.23;8.40;;;;;;;23.26;58.47;102051.84;5048907;28;20037;-73
2023/07/10 09:23:39;;;;;;;16.75;8.20;;;;;;;23.30;56.38;102049.94;5051109;28;20036;-73
2023/07/10 09:26:25;;;;;;;15.48;8.40;;;;;;;23.23;56.37;102044.13;5053708;28;20056;-74
2023/07/10 09:29:18;;;;;;;15.15;8.27;;;;;;;23.35;53.96;102046.81;5052327;28;20040;-74
2023/07/10 09:32:00;;;;;;;17.13;8.70;;;;;;;23.33;54.72;102041.56;5052954;28;20135;-73
2023/07/10 09:34:31;;;;;;;16.95;8.85;;;;;;;23.46;56.21;102036.59;5072385;28;20043;-73
2023/07/10 09:36:59;;;;;;;16.90;8.98;;;;;;;23.51;56.87;102044.81;5072080;28;20122;-73
2023/07/10 09:39:27;;;;;;;16.65;9.48;;;;;;;23.44;56.99;102038.16;5072326;28;20029;-74
2023/07/10 09:41:53;;;;;;;17.58;9.02;;;;;;;23.56;57.78;102040.91;5071649;28;20055;-74
2023/07/10 09:44:21;;;;;;;16.80;9.25;;;;;;;23.60;57.94;102038.97;5049015;28;20475;-72
2023/07/10 09:46:47;;;;;;;19.85;9.63;;;;;;;23.34;57.74;102046.00;5040595;28;20086;-72
2023/07/10 09:49:20;;;;;;;18.30;10.05;;;;;;;23.37;58.22;102030.34;5037365;28;20029;-73
2023/07/10 09:52:22;;;;;;;17.00;8.93;;;;;;;23.74;58.67;102026.38;5033678;28;20120;-73
2023/07/10 09:54:48;;;;;;;17.83;9.70;;;;;;;23.67;54.82;102044.75;5039874;28;20041;-74
2023/07/10 09:57:17;;;;;;;17.38;9.65;;;;;;;23.74;56.07;102027.16;5051600;28;20532;-73
2023/07/10 09:59:53;;;;;;;19.05;9.20;;;;;;;23.88;56.00;102026.66;5050998;28;20040;-74
2023/07/10 10:02:22;;;;;;;17.58;9.15;;;;;;;23.94;55.83;102033.72;5052275;28;20025;-73
2023/07/10 10:04:59;;;;;;;17.60;9.45;;;;;;;24.01;55.65;102038.69;5052161;28;20021;-73
2023/07/10 10:07:25;;;;;;;18.17;9.57;;;;;;;24.05;55.23;102042.41;5051987;28;20469;-74
2023/07/10 10:10:21;;;;;;;17.98;9.07;;;;;;;24.22;56.60;102037.50;5045766;28;20136;-74
2023/07/10 10:13:04;;;;;;;16.45;8.93;;;;;;;24.30;56.15;102033.63;5043262;28;20139;-75
2023/07/10 10:15:40;;;;;;;19.50;9.57;;;;;;;24.33;55.89;102024.41;5038101;28;20049;-74
2023/07/10 10:18:16;;;;;;;16.48;9.25;;;;;;;24.42;55.23;102022.19;5055656;28;20484;-72
2023/07/10 10:20:42;;;;;;;16.77;9.32;;;;;;;24.59;56.58;102028.53;5054289;28;20123;-72
2023/07/10 10:23:36;;;;;;;20.17;10.13;;;;;;;24.64;55.03;102028.25;5047710;28;20536;-75
2023/07/10 10:26:25;;;;;;;16.23;9.13;;;;;;;24.71;54.24;102033.22;5051481;28;20091;-74
2023/07/10 10:29:06;;;;;;;19.25;8.95;;;;;;;24.61;53.25;102024.13;5052223;28;20071;-72
2023/07/10 10:31:39;;;;;;;21.30;8.45;;;;;;;24.47;53.60;102025.91;5051501;28;20070;-73
2023/07/10 10:34:24;;;;;;;20.45;9.30;;;;;;;24.59;53.20;102023.72;5051477;28;20069;-73
2023/07/10 10:37:18;;;;;;;17.60;8.57;;;;;;;24.72;53.02;102023.56;5051083;28;20451;-72
2023/07/10 10:39:52;;;;;;;15.95;9.30;;;;;;;24.77;52.11;102018.41;5051281;28;20037;-73
2023/07/10 10:42:34;;;;;;;16.60;9.10;;;;;;;25.19;52.35;102024.38;5051497;28;20025;-74
2023/07/10 10:45:27;;;;;;;17.77;9.57;;;;;;;25.47;51.10;102029.69;5050665;28;20045;-73
2023/07/10 10:48:23;;;;;;;15.30;8.68;;;;;;;25.58;49.50;102027.06;5047503;28;20041;-72
2023/07/10 10:51:14;;;;;;;19.10;9.27;;;;;;;25.54;50.40;102026.16;5050127;28;20135;-72
2023/07/10 10:53:47;;;;;;;16.98;8.68;;;;;;;25.32;50.65;102017.31;5050698;28;20041;-72
2023/07/10 10:56:27;;;;;;;15.35;8.00;;;;;;;25.15;51.65;102035.66;5050840;28;20037;-72
2023/07/10 10:59:04;;;;;;;18.05;9.25;;;;;;;24.91;50.77;102025.53;5050608;28;20511;-72
2023/07/10 11:01:45;;;;;;;15.07;8.48;;;;;;;25.22;52.28;102034.97;5049450;28;20033;-73
2023/07/10 11:04:13;;;;;;;16.27;8.70;;;;;;;25.49;51.20;102032.97;5050723;28;20102;-72
2023/07/10 11:06:54;;;;;;;15.93;8.77;;;;;;;25.62;50.13;102032.78;5049452;28;20465;-71
2023/07/10 11:09:25;;;;;;;16.67;9.02;;;;;;;25.76;50.68;102046.31;5066287;28;20522;-72
2023/07/10 11:11:51;;;;;;;17.88;8.73;;;;;;;25.75;49.68;102041.84;5064642;28;20059;-73
2023/07/10 11:14:16;;;;;;;14.98;8.35;;;;;;;25.61;48.77;102031.13;5066361;28;20037;-72
2023/07/10 11:16:42;;;;;;;16.08;8.38;;;;;;;25.47;49.90;102031.72;5070617;28;20040;-71